Time;durP1;ratioP1;P1;durP2;ratioP2;P2;SDS_P1;SDS_P2;PMS_P1;PMS_P2;Temp;Humidity;BMP_temperature;BMP_pressure;BME280_temperature;BME280_humidity;BME280_pressure;Samples;Min_cycle;Max_cycle;Signal;HPM_P1;HPM_P2
2024/02/28 00:04:12;;;;;;;80.50;50.90;;;;;;;10.21;84.05;98546.60;433816;1264;107717;-40
2024/02/28 00:14:20;;;;;;;84.90;51.10;;;;;;;10.05;84.19;98541.73;433788;1262;99237;-39
2024/02/28 00:24:29;;;;;;;80.50;49.10;;;;;;;10.03;84.44;98524.13;433697;1257;112228;-40
2024/02/28 00:34:36;;;;;;;;;;;;;;;9.94;84.48;98527.29;433685;1264;108567;-42
2024/02/28 00:44:43;;;;;;;78.40;48.80;;;;;;;9.89;84.80;98534.45;433598;1262;99256;-40
2024/02/28 00:54:51;;;;;;;88.20;49.50;;;;;;;9.80;84.91;98540.63;433803;1261;108682;-41
2024/02/28 01:05:00;;;;;;;100.80;67.50;;;;;;;9.65;85.22;98539.13;433732;1257;99263;-41
2024/02/28 01:15:09;;;;;;;86.00;53.70;;;;;;;9.57;85.34;98535.20;433701;1258;112045;-39
2024/02/28 01:25:18;;;;;;;88.90;56.40;;;;;;;9.56;85.59;98533.58;433597;1262;108843;-41
2024/02/28 01:35:26;;;;;;;82.10;53.30;;;;;;;9.66;85.87;98533.09;434347;1257;99333;-40
2024/02/28 01:45:35;;;;;;;94.30;57.80;;;;;;;9.58;85.68;98533.48;433701;1261;108597;-41
2024/02/28 01:55:43;;;;;;;90.70;56.00;;;;;;;9.57;86.10;98521.90;433656;1261;99336;-41
2024/02/28 02:05:51;;;;;;;94.70;58.40;;;;;;;9.45;86.15;98522.27;433800;1260;112066;-41
2024/02/28 02:15:59;;;;;;;98.00;60.60;;;;;;;9.25;86.04;98526.14;433727;1261;108257;-41
2024/02/28 02:26:07;;;;;;;86.40;58.00;;;;;;;9.09;85.99;98523.58;434450;1261;99262;-39
2024/02/28 02:36:14;;;;;;;96.50;57.50;;;;;;;8.98;86.13;98518.89;433954;1256;107311;-40
2024/02/28 02:46:22;;;;;;;91.40;57.70;;;;;;;8.90;86.32;98511.30;434021;1260;99247;-39
2024/02/28 02:56:29;;;;;;;106.90;65.20;;;;;;;8.79;86.20;98515.21;434015;1260;111659;-40
2024/02/28 03:06:36;;;;;;;115.40;70.00;;;;;;;8.62;86.87;98518.14;433918;1260;108305;-39
2024/02/28 03:16:42;;;;;;;117.20;69.90;;;;;;;8.62;87.00;98521.95;433963;1261;99204;-40
2024/02/28 03:26:49;;;;;;;109.90;67.20;;;;;;;8.70;87.22;98524.41;433805;1261;108651;-39
2024/02/28 03:36:56;;;;;;;109.20;63.50;;;;;;;8.79;87.47;98531.86;434023;1256;99227;-40
2024/02/28 03:47:04;;;;;;;108.20;67.90;;;;;;;8.87;87.76;98530.88;433932;1262;111682;-40
2024/02/28 03:57:11;;;;;;;106.40;65.90;;;;;;;8.94;87.94;98533.81;433891;1256;109182;-39
2024/02/28 04:17:26;;;;;;;109.70;66.80;;;;;;;8.96;88.18;98550.15;433609;1256;107868;-40
2024/02/28 04:27:33;;;;;;;114.80;69.60;;;;;;;8.96;88.52;98545.89;433972;1260;99253;-39
2024/02/28 04:37:40;;;;;;;121.10;71.80;;;;;;;8.90;88.80;98552.97;434716;1260;111764;-40
2024/02/28 04:47:48;;;;;;;112.00;68.60;;;;;;;8.90;88.85;98557.03;433945;1256;109549;-41
2024/02/28 04:57:55;;;;;;;99.90;63.10;;;;;;;8.97;88.90;98558.73;433826;1261;97995;-40
2024/02/28 05:08:02;;;;;;;109.10;68.10;;;;;;;9.02;89.15;98565.76;433928;1256;108175;-42
2024/02/28 05:18:09;;;;;;;107.70;67.20;;;;;;;9.14;89.36;98570.19;433965;1256;98072;-41
2024/02/28 05:28:16;;;;;;;117.40;66.00;;;;;;;9.17;89.46;98581.78;434160;1260;112902;-41
2024/02/28 05:38:24;;;;;;;125.30;72.60;;;;;;;9.23;89.61;98591.59;433844;1256;108459;-41
2024/02/28 05:48:31;;;;;;;123.90;76.80;;;;;;;9.36;89.85;98602.83;434006;1256;99262;-40
2024/02/28 05:58:38;;;;;;;104.10;66.20;;;;;;;9.27;89.40;98610.45;434116;1261;107318;-40
2024/02/28 06:08:46;;;;;;;121.30;71.80;;;;;;;9.09;89.55;98632.53;433911;1261;99246;-40
2024/02/28 06:18:53;;;;;;;103.60;61.30;;;;;;;9.17;89.79;98636.59;434235;1262;111556;-40
2024/02/28 06:39:06;;;;;;;105.00;65.70;;;;;;;9.24;89.79;98648.95;433971;1262;99244;-40
2024/02/28 06:49:12;;;;;;;115.80;68.70;;;;;;;9.32;90.06;98657.13;433896;1256;108077;-40
2024/02/28 06:59:19;;;;;;;108.20;70.00;;;;;;;9.55;90.64;98658.27;434025;1261;98533;-40
2024/02/28 07:09:29;;;;;;;119.00;70.50;;;;;;;9.61;90.68;98663.02;434070;1256;111999;-39
2024/02/28 07:19:37;;;;;;;121.50;70.80;;;;;;;9.67;90.48;98663.47;434007;1256;108113;-41
2024/02/28 07:39:51;;;;;;;103.40;63.90;;;;;;;10.03;90.74;98668.89;433918;1256;108088;-40
2024/02/28 07:49:58;;;;;;;131.10;74.40;;;;;;;10.10;90.69;98670.33;433995;1256;98029;-40
2024/02/28 08:00:04;;;;;;;127.70;71.70;;;;;;;10.08;90.61;98669.87;434050;1256;111042;-39
2024/02/28 08:10:14;;;;;;;113.00;64.50;;;;;;;10.08;90.40;98670.48;433861;1261;108412;-41
2024/02/28 08:20:21;;;;;;;96.80;59.40;;;;;;;10.43;90.78;98671.77;433848;1262;99256;-41
2024/02/28 08:30:28;;;;;;;110.00;64.50;;;;;;;10.82;91.06;98684.48;433896;1256;108667;-41
2024/02/28 08:40:36;;;;;;;118.80;73.70;;;;;;;11.02;90.70;98692.52;433963;1256;99530;-40
2024/02/28 08:50:43;;;;;;;102.60;66.70;;;;;;;10.85;90.81;98705.23;433991;1262;111718;-40
2024/02/28 09:10:56;;;;;;;108.60;62.90;;;;;;;10.85;90.79;98703.39;434051;1260;99269;-39
2024/02/28 09:21:04;;;;;;;113.50;62.60;;;;;;;10.89;90.89;98702.28;433859;1262;109141;-40
2024/02/28 09:31:11;;;;;;;135.50;68.60;;;;;;;10.93;91.05;98713.16;433519;1260;99362;-39
2024/02/28 09:41:19;;;;;;;136.10;73.60;;;;;;;10.82;91.15;98720.50;433958;1261;112905;-40
2024/02/28 09:51:27;;;;;;;129.40;68.40;;;;;;;10.46;91.19;98731.91;433948;1260;108607;-40
2024/02/28 10:01:43;;;;;;;114.90;63.80;;;;;;;10.11;91.28;98737.52;433844;1262;99272;-40
2024/02/28 10:11:49;;;;;;;118.60;61.80;;;;;;;9.97;91.33;98737.54;433845;1258;107380;-40
2024/02/28 10:21:56;;;;;;;109.50;61.50;;;;;;;10.05;91.70;98750.11;433951;1269;99375;-40
2024/02/28 10:32:05;;;;;;;102.70;57.20;;;;;;;10.20;91.91;98756.91;433959;1269;110872;-38
2024/02/28 10:42:16;;;;;;;91.10;53.60;;;;;;;10.28;92.23;98760.05;433895;1262;107338;-40
2024/02/28 10:52:26;;;;;;;92.30;50.10;;;;;;;10.19;92.49;98765.39;433872;1261;99226;-38
2024/02/28 11:12:40;;;;;;;80.50;45.50;;;;;;;10.23;92.59;98774.70;434065;1262;99275;-40
2024/02/28 11:22:46;;;;;;;84.60;49.50;;;;;;;10.30;92.73;98783.05;433962;1262;111693;-39
2024/02/28 11:32:54;;;;;;;88.60;48.20;;;;;;;10.32;92.68;98788.96;433902;1269;108102;-40
2024/02/28 11:43:05;;;;;;;77.50;44.00;;;;;;;10.23;92.58;98794.21;434028;1269;99243;-40
2024/02/28 11:53:12;;;;;;;79.30;44.60;;;;;;;10.33;92.86;98792.77;433698;1260;108489;-40
2024/02/28 12:13:29;;;;;;;80.20;44.00;;;;;;;10.45;92.74;98793.48;433904;1269;111064;-41
2024/02/28 12:23:37;;;;;;;80.10;45.40;;;;;;;10.56;92.62;98791.37;434056;1261;108425;-40
2024/02/28 12:33:44;;;;;;;76.60;44.60;;;;;;;10.59;92.47;98792.24;434037;1258;97924;-39
2024/02/28 12:43:51;;;;;;;64.40;36.60;;;;;;;10.55;92.17;98795.44;433958;1269;107543;-40
2024/02/28 12:53:58;;;;;;;65.50;37.00;;;;;;;10.30;92.00;98805.14;433815;1261;99339;-41
2024/02/28 13:04:06;;;;;;;60.00;35.60;;;;;;;10.13;92.11;98810.41;433955;1261;111841;-39
2024/02/28 13:14:14;;;;;;;59.10;34.30;;;;;;;10.01;92.16;98821.08;433904;1269;107647;-41
2024/02/28 13:24:21;;;;;;;63.00;35.80;;;;;;;9.85;92.16;98831.38;433816;1260;99272;-40
2024/02/28 13:44:36;;;;;;;66.50;36.40;;;;;;;9.28;92.54;98853.69;434005;1257;99316;-40
2024/02/28 13:54:45;;;;;;;59.30;37.80;;;;;;;9.02;92.74;98866.17;433867;1261;112992;-40
2024/02/28 14:04:52;;;;;;;53.50;31.00;;;;;;;8.83;93.11;98875.52;433943;1260;107946;-39
2024/02/28 14:14:59;;;;;;;49.40;27.80;;;;;;;8.64;93.09;98879.15;433854;1264;98771;-40
2024/02/28 14:25:06;;;;;;;47.10;27.40;;;;;;;8.59;93.46;98873.83;433844;1268;108637;-38
2024/02/28 14:35:13;;;;;;;37.20;24.00;;;;;;;8.74;93.43;98877.73;433898;1256;99096;-40
2024/02/28 14:45:20;;;;;;;32.10;20.20;;;;;;;8.74;93.49;98873.48;433888;1260;112857;-39
2024/02/28 14:55:27;;;;;;;44.20;26.30;;;;;;;8.77;93.59;98875.55;433928;1260;107622;-40
2024/02/28 15:05:34;;;;;;;41.70;25.50;;;;;;;8.78;93.39;98883.49;433897;1260;99237;-39
2024/02/28 15:15:42;;;;;;;42.00;24.80;;;;;;;8.76;93.23;98893.12;433914;1257;110811;-39
2024/02/28 15:25:54;;;;;;;55.20;26.90;;;;;;;8.73;93.13;98908.85;433991;1258;98395;-40
2024/02/28 15:36:03;;;;;;;59.30;34.50;;;;;;;8.73;93.04;98917.70;433883;1257;111211;-40
2024/02/28 15:56:18;;;;;;;54.40;28.90;;;;;;;8.52;93.03;98930.66;433875;1260;99308;-39
2024/02/28 16:06:25;;;;;;;56.10;26.40;;;;;;;8.49;93.01;98935.60;434031;1256;107608;-39
2024/02/28 16:16:46;;;;;;;59.10;28.70;;;;;;;8.44;93.23;98947.46;433597;1257;424020;-41
2024/02/28 16:26:53;;;;;;;56.20;29.50;;;;;;;8.45;93.37;98953.49;433724;1256;110218;-40
2024/02/28 16:37:02;;;;;;;60.50;31.60;;;;;;;8.46;93.16;98964.20;433745;1261;108369;-40
2024/02/28 16:47:08;;;;;;;;;;;;;;;8.31;93.49;98967.52;433930;1261;98004;-39
2024/02/28 16:57:15;;;;;;;70.40;37.60;;;;;;;8.17;93.60;98965.58;433717;1261;108456;-39
2024/02/28 17:07:23;;;;;;;54.40;33.80;;;;;;;8.13;93.63;98976.34;433827;1260;98832;-41
2024/02/28 17:17:30;;;;;;;69.10;37.90;;;;;;;8.11;93.82;98975.49;433997;1256;111332;-40
2024/02/28 17:27:37;;;;;;;53.70;31.40;;;;;;;8.12;93.92;98978.52;433832;1256;107539;-40
2024/02/28 17:47:51;;;;;;;58.40;29.20;;;;;;;8.14;93.99;98988.41;433834;1260;109435;-41
2024/02/28 17:57:59;;;;;;;54.50;30.20;;;;;;;8.10;94.11;98994.30;433785;1260;99266;-39
2024/02/28 18:08:06;;;;;;;56.30;32.50;;;;;;;8.05;94.16;98999.20;433966;1260;112830;-40
2024/02/28 18:18:14;;;;;;;65.30;33.10;;;;;;;8.04;94.38;99011.42;433924;1260;107874;-40
2024/02/28 18:28:21;;;;;;;63.60;33.60;;;;;;;8.03;94.34;99014.71;433984;1260;99365;-40
2024/02/28 18:38:28;;;;;;;61.50;31.00;;;;;;;7.99;94.49;99023.21;433885;1256;108756;-39
2024/02/28 18:48:36;;;;;;;64.30;32.20;;;;;;;7.94;94.41;99019.53;433807;1256;99253;-40
2024/02/28 18:58:44;;;;;;;49.90;27.20;;;;;;;7.90;94.64;99026.39;433963;1256;112502;-40
2024/02/28 19:18:58;;;;;;;45.50;26.20;;;;;;;7.79;94.72;99041.23;433934;1260;99227;-40
2024/02/28 19:29:06;;;;;;;47.90;27.30;;;;;;;7.74;94.80;99043.14;433933;1257;108707;-40
2024/02/28 19:39:13;;;;;;;39.60;24.60;;;;;;;7.75;95.02;99055.57;433873;1260;99356;-38
2024/02/28 19:59:26;;;;;;;60.80;29.80;;;;;;;7.66;95.21;99051.88;433769;1261;109249;-40
2024/02/28 20:19:39;;;;;;;46.80;25.50;;;;;;;7.64;95.25;99074.67;433874;1256;109116;-40
2024/02/28 20:29:47;;;;;;;47.60;26.20;;;;;;;7.64;95.27;99079.48;433826;1256;99865;-41
2024/02/28 20:39:53;;;;;;;52.70;28.40;;;;;;;7.60;95.12;99086.00;433817;1260;111169;-40
2024/02/28 20:50:04;;;;;;;39.90;22.90;;;;;;;7.43;95.22;99087.90;433846;1256;107856;-40
2024/02/28 21:00:14;;;;;;;42.60;27.50;;;;;;;7.33;95.27;99095.96;433973;1256;99333;-41
2024/02/28 21:10:21;;;;;;;32.90;21.30;;;;;;;7.27;95.57;99103.87;433905;1258;108182;-39
2024/02/28 21:20:29;;;;;;;40.30;24.00;;;;;;;7.22;95.60;99115.02;434067;1256;99414;-40
2024/02/28 21:30:37;;;;;;;40.80;24.00;;;;;;;7.24;95.70;99123.64;433811;1256;111150;-40
2024/02/28 21:40:45;;;;;;;36.90;21.30;;;;;;;7.08;95.78;99130.61;433949;1260;106683;-40
2024/02/28 21:50:52;;;;;;;31.00;19.90;;;;;;;6.98;96.03;99133.59;434025;1260;99266;-38
2024/02/28 22:00:59;;;;;;;31.50;18.70;;;;;;;6.94;96.15;99136.89;433980;1256;108169;-39
2024/02/28 22:11:07;;;;;;;23.70;15.40;;;;;;;6.81;96.11;99140.30;433920;1260;99206;-41
2024/02/28 22:21:13;;;;;;;;;;;;;;;6.63;96.52;99144.98;434053;1260;111840;-40
2024/02/28 22:31:20;;;;;;;38.60;17.60;;;;;;;6.59;96.80;99143.94;433955;1256;107583;-41
2024/02/28 22:41:27;;;;;;;30.90;18.00;;;;;;;6.68;96.83;99143.77;433791;1260;98816;-39
2024/02/28 22:51:34;;;;;;;33.20;19.10;;;;;;;6.71;96.83;99143.86;433866;1266;107085;-39
2024/02/28 23:11:48;;;;;;;29.50;18.20;;;;;;;6.75;96.66;99135.48;433895;1260;111507;-40
2024/02/28 23:21:56;;;;;;;24.50;15.30;;;;;;;6.75;96.99;99136.13;433906;1256;107941;-40
2024/02/28 23:32:03;;;;;;;21.80;13.10;;;;;;;6.74;96.82;99123.46;433905;1260;99224;-41
2024/02/28 23:42:10;;;;;;;25.50;15.00;;;;;;;6.59;96.75;99120.48;433814;1256;109674;-39
2024/02/28 23:52:17;;;;;;;28.20;16.90;;;;;;;6.60;97.01;99132.41;433938;1260;99343;-40
